createdAt,value
2018-09-19T00:00:17.746Z,1005.4
2018-09-19T00:01:19.104Z,1005.3
2018-09-19T00:02:20.462Z,1005.4
2018-09-19T00:03:21.820Z,1005.4
2018-09-19T00:04:23.188Z,1005.4
2018-09-19T00:05:24.551Z,1005.4
2018-09-19T00:06:25.922Z,1005.4
2018-09-19T00:07:27.292Z,1005.4
2018-09-19T00:08:28.643Z,1005.4
2018-09-19T00:09:30.014Z,1005.4
2018-09-19T00:10:31.373Z,1005.5
2018-09-19T00:11:32.739Z,1005.4
2018-09-19T00:12:34.117Z,1005.5
2018-09-19T00:13:35.463Z,1005.4
2018-09-19T00:14:36.833Z,1005.4
2018-09-19T00:15:38.192Z,1005.4
2018-09-19T00:16:39.554Z,1005.4
2018-09-19T00:17:40.919Z,1005.3
2018-09-19T00:18:42.275Z,1005.3
2018-09-19T00:19:43.653Z,1005.3
2018-09-19T00:20:44.997Z,1005.4
2018-09-19T00:21:46.499Z,1005.4
2018-09-19T00:22:47.732Z,1005.4
2018-09-19T00:23:49.094Z,1005.4
2018-09-19T00:24:50.459Z,1005.4
2018-09-19T00:25:51.813Z,1005.4
2018-09-19T00:26:53.182Z,1005.4
2018-09-19T00:27:54.548Z,1005.4
2018-09-19T00:28:55.970Z,1005.5
2018-09-19T00:29:57.269Z,1005.5
2018-09-19T00:30:58.636Z,1005.5
2018-09-19T00:32:00.002Z,1005.5
2018-09-19T00:33:01.366Z,1005.5
2018-09-19T00:34:02.736Z,1005.5
2018-09-19T00:35:04.098Z,1005.6
2018-09-19T00:36:05.456Z,1005.5
2018-09-19T00:37:06.822Z,1005.5
2018-09-19T00:38:08.198Z,1005.6
2018-09-19T00:39:09.557Z,1005.6
2018-09-19T00:40:10.914Z,1005.6
2018-09-19T00:41:12.277Z,1005.5
2018-09-19T00:42:13.644Z,1005.5
2018-09-19T00:43:15.007Z,1005.6
2018-09-19T00:44:16.371Z,1005.5
2018-09-19T00:45:17.745Z,1005.6
2018-09-19T00:46:19.104Z,1005.5
2018-09-19T00:47:20.472Z,1005.5
2018-09-19T00:48:21.839Z,1005.6
2018-09-19T00:49:23.210Z,1005.5
2018-09-19T00:50:24.569Z,1005.5
2018-09-19T00:51:25.918Z,1005.5
2018-09-19T00:52:27.290Z,1005.6
2018-09-19T00:53:28.648Z,1005.6
2018-09-19T00:54:30.008Z,1005.6
2018-09-19T00:55:31.373Z,1005.6
2018-09-19T00:56:32.734Z,1005.6
2018-09-19T00:57:34.103Z,1005.6
2018-09-19T00:58:35.467Z,1005.6
2018-09-19T00:59:36.838Z,1005.5
2018-09-19T01:00:38.197Z,1005.5
2018-09-19T01:01:39.556Z,1005.5
2018-09-19T01:02:40.916Z,1005.5
2018-09-19T01:03:42.277Z,1005.5
2018-09-19T01:04:43.628Z,1005.5
2018-09-19T01:05:45.002Z,1005.5
2018-09-19T01:06:46.361Z,1005.5
2018-09-19T01:07:47.726Z,1005.5
2018-09-19T01:08:49.092Z,1005.5
2018-09-19T01:09:50.466Z,1005.5
2018-09-19T01:10:51.837Z,1005.5
2018-09-19T01:11:53.177Z,1005.4
2018-09-19T01:12:54.534Z,1005.4
2018-09-19T01:13:55.916Z,1005.4
2018-09-19T01:14:57.282Z,1005.4
2018-09-19T01:15:58.643Z,1005.4
2018-09-19T01:17:00.068Z,1005.4
2018-09-19T01:18:01.393Z,1005.5
2018-09-19T01:19:02.745Z,1005.5
2018-09-19T01:20:04.106Z,1005.5
2018-09-19T01:21:05.471Z,1005.5
2018-09-19T01:22:06.837Z,1005.5
2018-09-19T01:23:08.197Z,1005.5
2018-09-19T01:24:09.563Z,1005.5
2018-09-19T01:25:10.936Z,1005.5
2018-09-19T01:26:12.287Z,1005.4
2018-09-19T01:27:13.644Z,1005.4
2018-09-19T01:28:15.018Z,1005.4
2018-09-19T01:29:16.373Z,1005.4
2018-09-19T01:30:17.734Z,1005.4
2018-09-19T01:31:19.106Z,1005.4
2018-09-19T01:32:20.458Z,1005.5
2018-09-19T01:33:21.813Z,1005.5
2018-09-19T01:34:23.179Z,1005.5
2018-09-19T01:35:24.543Z,1005.5
2018-09-19T01:36:25.897Z,1005.5
2018-09-19T01:37:27.263Z,1005.5
2018-09-19T01:38:28.620Z,1005.5
2018-09-19T01:39:29.994Z,1005.5
2018-09-19T01:40:31.349Z,1005.5
2018-09-19T01:41:32.712Z,1005.5
2018-09-19T01:42:34.062Z,1005.6
2018-09-19T01:43:35.433Z,1005.6
2018-09-19T01:44:36.794Z,1005.6
2018-09-19T01:45:38.152Z,1005.6
2018-09-19T01:46:39.522Z,1005.6
2018-09-19T01:47:40.881Z,1005.5
2018-09-19T01:48:42.250Z,1005.5
2018-09-19T01:49:43.602Z,1005.5
2018-09-19T01:50:44.961Z,1005.6
2018-09-19T01:51:46.346Z,1005.6
2018-09-19T01:52:47.698Z,1005.6
2018-09-19T01:53:49.062Z,1005.6
2018-09-19T01:54:50.418Z,1005.6
2018-09-19T01:55:51.784Z,1005.5
2018-09-19T01:56:53.148Z,1005.6
2018-09-19T01:57:54.519Z,1005.6
2018-09-19T01:58:55.872Z,1005.6
2018-09-19T01:59:57.238Z,1005.6
2018-09-19T02:00:58.607Z,1005.6
2018-09-19T02:01:59.982Z,1005.6
2018-09-19T02:03:01.330Z,1005.6
2018-09-19T02:04:02.700Z,1005.6
2018-09-19T02:05:04.057Z,1005.6
2018-09-19T02:06:05.425Z,1005.6
2018-09-19T02:07:06.923Z,1005.6
2018-09-19T02:08:08.288Z,1005.6
2018-09-19T02:09:09.638Z,1005.5
2018-09-19T02:10:11.003Z,1005.6
2018-09-19T02:11:12.376Z,1005.5
2018-09-19T02:12:13.721Z,1005.5
2018-09-19T02:13:15.096Z,1005.6
2018-09-19T02:14:16.465Z,1005.6
2018-09-19T02:15:17.821Z,1005.6
2018-09-19T02:16:19.174Z,1005.6
2018-09-19T02:17:20.535Z,1005.6
2018-09-19T02:18:21.892Z,1005.6
2018-09-19T02:19:23.249Z,1005.6
2018-09-19T02:20:24.605Z,1005.7
2018-09-19T02:21:25.969Z,1005.7
2018-09-19T02:22:27.344Z,1005.8
2018-09-19T02:23:28.704Z,1005.8
2018-09-19T02:24:30.059Z,1005.8
2018-09-19T02:25:31.420Z,1005.8
2018-09-19T02:26:32.781Z,1005.8
2018-09-19T02:27:34.143Z,1005.8
2018-09-19T02:28:35.547Z,1005.8
2018-09-19T02:29:36.825Z,1005.8
2018-09-19T02:30:38.194Z,1005.8
2018-09-19T02:31:39.557Z,1005.8
2018-09-19T02:32:40.913Z,1005.8
2018-09-19T02:33:42.282Z,1005.8
2018-09-19T02:34:43.646Z,1005.7
2018-09-19T02:35:45.007Z,1005.7
2018-09-19T02:36:46.370Z,1005.7
2018-09-19T02:37:47.724Z,1005.7
2018-09-19T02:38:49.084Z,1005.7
2018-09-19T02:39:50.455Z,1005.7
2018-09-19T02:40:51.811Z,1005.8
2018-09-19T02:41:53.169Z,1005.7
2018-09-19T02:42:54.527Z,1005.8
2018-09-19T02:43:55.885Z,1005.7
2018-09-19T02:44:57.254Z,1005.7
2018-09-19T02:45:58.613Z,1005.8
2018-09-19T02:46:59.973Z,1005.8
2018-09-19T02:48:01.330Z,1005.8
2018-09-19T02:49:02.683Z,1005.8
2018-09-19T02:50:04.057Z,1005.8
2018-09-19T02:51:05.419Z,1005.8
2018-09-19T02:52:06.771Z,1005.8
2018-09-19T02:53:08.127Z,1005.8
2018-09-19T02:54:09.494Z,1005.8
2018-09-19T02:55:10.850Z,1005.8
2018-09-19T02:56:12.214Z,1005.8
2018-09-19T02:57:13.573Z,1005.8
2018-09-19T02:58:14.923Z,1005.8
2018-09-19T02:59:16.299Z,1005.8
2018-09-19T03:00:17.646Z,1005.8
2018-09-19T03:01:19.015Z,1005.8
2018-09-19T03:02:20.368Z,1005.8
2018-09-19T03:03:21.744Z,1005.8
2018-09-19T03:04:23.102Z,1005.9
2018-09-19T03:05:24.471Z,1005.9
2018-09-19T03:06:25.825Z,1005.9
2018-09-19T03:07:27.180Z,1006.0
2018-09-19T03:08:28.557Z,1005.9
2018-09-19T03:09:29.904Z,1005.9
2018-09-19T03:10:31.264Z,1005.9
2018-09-19T03:11:32.625Z,1005.9
2018-09-19T03:12:33.990Z,1005.9
2018-09-19T03:13:35.345Z,1005.9
2018-09-19T03:14:36.706Z,1005.9
2018-09-19T03:15:38.063Z,1005.9
2018-09-19T03:16:39.427Z,1006.0
2018-09-19T03:17:40.903Z,1005.9
2018-09-19T03:18:42.112Z,1005.9
2018-09-19T03:19:43.479Z,1005.9
2018-09-19T03:20:44.838Z,1005.9
2018-09-19T03:21:46.189Z,1006.0
2018-09-19T03:22:47.548Z,1006.0
2018-09-19T03:23:48.921Z,1006.0
2018-09-19T03:24:50.389Z,1006.0
2018-09-19T03:25:51.758Z,1006.1
2018-09-19T03:26:53.133Z,1006.1
2018-09-19T03:27:54.483Z,1006.1
2018-09-19T03:28:55.848Z,1006.1
2018-09-19T03:29:57.205Z,1006.1
2018-09-19T03:30:58.564Z,1006.2
2018-09-19T03:31:59.922Z,1006.2
2018-09-19T03:33:01.281Z,1006.1
2018-09-19T03:34:02.649Z,1006.2
2018-09-19T03:35:04.020Z,1006.1
2018-09-19T03:36:05.379Z,1006.1
2018-09-19T03:37:06.728Z,1006.1
2018-09-19T03:38:08.099Z,1006.2
2018-09-19T03:39:09.453Z,1006.2
2018-09-19T03:40:10.821Z,1006.2
2018-09-19T03:41:12.168Z,1006.2
2018-09-19T03:42:53.033Z,1006.2
2018-09-19T03:43:54.386Z,1006.1
2018-09-19T03:45:15.836Z,1006.1
2018-09-19T03:46:17.200Z,1006.1
2018-09-19T03:47:38.674Z,1006.1
2018-09-19T03:48:40.045Z,1006.1
2018-09-19T03:50:01.537Z,1006.1
2018-09-19T03:51:02.905Z,1006.1
2018-09-19T03:52:24.380Z,1006.1
2018-09-19T03:53:25.741Z,1006.1
2018-09-19T03:54:27.104Z,1006.1
2018-09-19T03:55:28.519Z,1006.1
2018-09-19T03:56:29.775Z,1006.0
2018-09-19T03:57:31.130Z,1006.1
2018-09-19T03:58:32.495Z,1006.1
2018-09-19T03:59:33.883Z,1006.1
2018-09-19T04:00:35.228Z,1006.1
2018-09-19T04:01:36.589Z,1006.1
2018-09-19T04:02:37.949Z,1006.1
2018-09-19T04:03:39.315Z,1006.1
2018-09-19T04:04:40.680Z,1006.1
2018-09-19T04:05:42.038Z,1006.1
2018-09-19T04:06:43.395Z,1006.2
2018-09-19T04:07:44.754Z,1006.2
2018-09-19T04:08:46.116Z,1006.2
2018-09-19T04:09:47.514Z,1006.2
2018-09-19T04:10:48.838Z,1006.3
2018-09-19T04:11:50.199Z,1006.3
2018-09-19T04:12:51.555Z,1006.3
2018-09-19T04:13:52.922Z,1006.3
2018-09-19T04:14:54.276Z,1006.3
2018-09-19T04:15:55.634Z,1006.3
2018-09-19T04:16:56.984Z,1006.3
2018-09-19T04:17:58.420Z,1006.3
2018-09-19T04:18:59.719Z,1006.3
2018-09-19T04:20:01.071Z,1006.3
2018-09-19T04:21:02.426Z,1006.3
2018-09-19T04:22:03.780Z,1006.2
2018-09-19T04:23:05.148Z,1006.3
2018-09-19T04:24:06.501Z,1006.3
2018-09-19T04:25:07.858Z,1006.3
2018-09-19T04:26:09.210Z,1006.3
2018-09-19T04:27:10.577Z,1006.3
2018-09-19T04:28:11.958Z,1006.3
2018-09-19T04:29:13.320Z,1006.3
2018-09-19T04:30:14.676Z,1006.3
2018-09-19T04:31:16.041Z,1006.3
2018-09-19T04:32:17.464Z,1006.2
2018-09-19T04:33:18.708Z,1006.3
2018-09-19T04:34:20.080Z,1006.3
2018-09-19T04:35:21.440Z,1006.3
2018-09-19T04:36:22.799Z,1006.3
2018-09-19T04:37:24.164Z,1006.3
2018-09-19T04:38:25.520Z,1006.3
2018-09-19T04:39:26.887Z,1006.4
2018-09-19T04:40:28.246Z,1006.4
2018-09-19T04:41:29.616Z,1006.4
2018-09-19T04:42:30.969Z,1006.4
2018-09-19T04:43:32.348Z,1006.3
2018-09-19T04:44:33.697Z,1006.3
2018-09-19T04:45:35.062Z,1006.3
2018-09-19T04:46:36.428Z,1006.4
2018-09-19T04:47:37.779Z,1006.4
2018-09-19T04:48:39.140Z,1006.4
2018-09-19T04:49:40.495Z,1006.4
2018-09-19T04:50:41.864Z,1006.4
2018-09-19T04:51:43.257Z,1006.5
2018-09-19T04:52:44.580Z,1006.5
2018-09-19T04:53:45.943Z,1006.5
2018-09-19T04:54:47.315Z,1006.5
2018-09-19T04:55:48.679Z,1006.5
2018-09-19T04:56:50.825Z,1006.5
2018-09-19T04:57:52.196Z,1006.5
2018-09-19T04:58:53.563Z,1006.5
2018-09-19T04:59:54.916Z,1006.5
2018-09-19T05:00:56.275Z,1006.5
2018-09-19T05:01:57.643Z,1006.5
2018-09-19T05:02:59.001Z,1006.5
2018-09-19T05:04:00.360Z,1006.6
2018-09-19T05:05:01.730Z,1006.6
2018-09-19T05:06:03.084Z,1006.6
2018-09-19T05:07:04.445Z,1006.6
2018-09-19T05:08:05.812Z,1006.6
2018-09-19T05:09:07.173Z,1006.6
2018-09-19T05:10:08.550Z,1006.6
2018-09-19T05:11:09.967Z,1006.7
2018-09-19T05:12:11.289Z,1006.7
2018-09-19T05:13:12.629Z,1006.7
2018-09-19T05:14:13.988Z,1006.7
2018-09-19T05:15:15.351Z,1006.7
2018-09-19T05:16:16.716Z,1006.8
2018-09-19T05:17:18.085Z,1006.8
2018-09-19T05:18:19.442Z,1006.9
2018-09-19T05:19:20.808Z,1006.9
2018-09-19T05:20:22.171Z,1006.9
2018-09-19T05:21:23.530Z,1006.9
2018-09-19T05:22:24.890Z,1007.0
2018-09-19T05:23:26.270Z,1007.0
2018-09-19T05:24:27.633Z,1006.9
2018-09-19T05:25:28.990Z,1007.0
2018-09-19T05:26:30.359Z,1007.0
2018-09-19T05:27:31.714Z,1007.0
2018-09-19T05:28:33.084Z,1007.1
2018-09-19T05:29:34.446Z,1007.1
2018-09-19T05:30:35.803Z,1007.1
2018-09-19T05:31:37.201Z,1007.2
2018-09-19T05:32:38.544Z,1007.2
2018-09-19T05:33:39.910Z,1007.3
2018-09-19T05:34:41.284Z,1007.2
2018-09-19T05:35:42.641Z,1007.3
2018-09-19T05:36:44.004Z,1007.3
2018-09-19T05:37:45.372Z,1007.3
2018-09-19T05:38:46.746Z,1007.3
2018-09-19T05:39:48.108Z,1007.3
2018-09-19T05:40:49.465Z,1007.3
2018-09-19T05:41:50.836Z,1007.3
2018-09-19T05:42:52.195Z,1007.3
2018-09-19T05:43:53.564Z,1007.2
2018-09-19T05:44:54.915Z,1007.2
2018-09-19T05:45:56.293Z,1007.2
2018-09-19T05:46:57.653Z,1007.2
2018-09-19T05:47:59.038Z,1007.2
2018-09-19T05:49:00.387Z,1007.2
2018-09-19T05:50:01.752Z,1007.2
2018-09-19T05:51:03.119Z,1007.2
2018-09-19T05:52:04.486Z,1007.2
2018-09-19T05:53:05.859Z,1007.2
2018-09-19T05:54:07.214Z,1007.3
2018-09-19T05:55:08.572Z,1007.3
2018-09-19T05:56:09.937Z,1007.3
2018-09-19T05:57:11.310Z,1007.4
2018-09-19T05:58:12.676Z,1007.4
2018-09-19T05:59:14.045Z,1007.4
2018-09-19T06:00:15.416Z,1007.4
2018-09-19T06:01:16.781Z,1007.4
2018-09-19T06:02:18.136Z,1007.4
2018-09-19T06:03:19.536Z,1007.4
2018-09-19T06:04:20.911Z,1007.4
2018-09-19T06:05:22.275Z,1007.4
2018-09-19T06:06:23.627Z,1007.4
2018-09-19T06:07:24.997Z,1007.3
2018-09-19T06:08:26.365Z,1007.3
2018-09-19T06:09:27.724Z,1007.3
2018-09-19T06:10:29.077Z,1007.2
2018-09-19T06:11:30.435Z,1007.3
2018-09-19T06:12:31.809Z,1007.2
2018-09-19T06:13:33.176Z,1007.2
2018-09-19T06:14:34.539Z,1007.2
2018-09-19T06:15:35.899Z,1007.2
2018-09-19T06:16:37.273Z,1007.2
2018-09-19T06:17:38.624Z,1007.2
2018-09-19T06:18:39.992Z,1007.2
2018-09-19T06:19:41.359Z,1007.2
2018-09-19T06:20:42.716Z,1007.2
2018-09-19T06:21:44.084Z,1007.2
2018-09-19T06:22:45.441Z,1007.2
2018-09-19T06:23:46.816Z,1007.2
2018-09-19T06:24:48.175Z,1007.3
2018-09-19T06:25:49.535Z,1007.3
2018-09-19T06:26:50.922Z,1007.3
2018-09-19T06:27:52.257Z,1007.2
2018-09-19T06:28:53.630Z,1007.3
2018-09-19T06:29:54.990Z,1007.3
2018-09-19T06:30:56.342Z,1007.3
2018-09-19T06:31:57.708Z,1007.3
2018-09-19T06:32:59.102Z,1007.3
2018-09-19T06:34:00.399Z,1007.3
2018-09-19T06:35:01.782Z,1007.3
2018-09-19T06:36:03.142Z,1007.3
2018-09-19T06:37:04.519Z,1007.4
2018-09-19T06:38:05.876Z,1007.4
2018-09-19T06:39:07.237Z,1007.4
2018-09-19T06:40:08.681Z,1007.4
2018-09-19T06:41:09.932Z,1007.4
2018-09-19T06:42:11.305Z,1007.4
2018-09-19T06:43:12.665Z,1007.5
2018-09-19T06:44:14.028Z,1007.4
2018-09-19T06:45:15.395Z,1007.5
2018-09-19T06:46:16.760Z,1007.4
2018-09-19T06:47:18.127Z,1007.5
2018-09-19T06:48:19.488Z,1007.5
2018-09-19T06:49:20.861Z,1007.5
2018-09-19T06:50:22.228Z,1007.5
2018-09-19T06:51:23.591Z,1007.5
2018-09-19T06:52:24.981Z,1007.5
2018-09-19T06:53:26.337Z,1007.5
2018-09-19T06:54:27.693Z,1007.5
2018-09-19T06:55:29.063Z,1007.5
2018-09-19T06:56:30.446Z,1007.5
2018-09-19T06:57:31.805Z,1007.5
2018-09-19T06:58:33.173Z,1007.5
2018-09-19T06:59:38.034Z,1007.5
2018-09-19T07:00:39.350Z,1007.6
2018-09-19T07:01:40.722Z,1007.5
2018-09-19T07:02:42.086Z,1007.5
2018-09-19T07:03:43.455Z,1007.5
2018-09-19T07:04:44.829Z,1007.5
2018-09-19T07:05:46.254Z,1007.6
2018-09-19T07:06:47.595Z,1007.6
2018-09-19T07:07:48.957Z,1007.6
2018-09-19T07:08:50.340Z,1007.6
2018-09-19T07:09:51.712Z,1007.7
2018-09-19T07:10:53.082Z,1007.7
2018-09-19T07:11:54.445Z,1007.7
2018-09-19T07:12:55.822Z,1007.7
2018-09-19T07:13:57.208Z,1007.6
2018-09-19T07:14:58.578Z,1007.7
2018-09-19T07:15:59.957Z,1007.7
2018-09-19T07:17:01.346Z,1007.7
2018-09-19T07:18:02.711Z,1007.6
2018-09-19T07:19:04.176Z,1007.7
2018-09-19T07:20:05.417Z,1007.6
2018-09-19T07:21:06.794Z,1007.7
2018-09-19T07:22:08.157Z,1007.7
2018-09-19T07:23:09.534Z,1007.7
2018-09-19T07:24:10.913Z,1007.7
2018-09-19T07:25:12.340Z,1007.7
2018-09-19T07:26:13.650Z,1007.7
2018-09-19T07:27:15.023Z,1007.6
2018-09-19T07:28:16.380Z,1007.7
2018-09-19T07:29:17.751Z,1007.7
2018-09-19T07:30:19.131Z,1007.6
2018-09-19T07:31:20.506Z,1007.6
2018-09-19T07:32:21.867Z,1007.6
2018-09-19T07:33:23.251Z,1007.6
2018-09-19T07:34:24.627Z,1007.6
2018-09-19T07:35:25.988Z,1007.6
2018-09-19T07:36:27.347Z,1007.6
2018-09-19T07:37:28.723Z,1007.6
2018-09-19T07:38:30.097Z,1007.6
2018-09-19T07:39:31.485Z,1007.6
2018-09-19T07:40:32.852Z,1007.6
2018-09-19T07:41:34.220Z,1007.6
2018-09-19T07:42:35.601Z,1007.6
2018-09-19T07:43:36.970Z,1007.7
2018-09-19T07:44:38.341Z,1007.7
2018-09-19T07:45:39.717Z,1007.7
2018-09-19T07:46:41.125Z,1007.7
2018-09-19T07:47:42.471Z,1007.7
2018-09-19T07:48:43.855Z,1007.7
2018-09-19T07:49:45.219Z,1007.8
2018-09-19T07:50:46.581Z,1007.8
2018-09-19T07:51:47.956Z,1007.8
2018-09-19T07:52:49.342Z,1007.8
2018-09-19T07:53:50.713Z,1007.8
2018-09-19T07:54:52.072Z,1007.9
2018-09-19T07:55:53.457Z,1007.9
2018-09-19T07:56:54.826Z,1007.9
2018-09-19T07:57:56.206Z,1007.9
2018-09-19T07:58:57.575Z,1008.0
2018-09-19T07:59:58.951Z,1008.0
2018-09-19T08:01:00.380Z,1007.9
2018-09-19T08:02:01.685Z,1007.9
2018-09-19T08:03:03.101Z,1007.9
2018-09-19T08:04:04.473Z,1007.9
2018-09-19T08:05:05.862Z,1007.9
2018-09-19T08:06:07.222Z,1007.9
2018-09-19T08:07:08.597Z,1007.9
2018-09-19T08:08:09.965Z,1007.9
2018-09-19T08:09:11.457Z,1008.0
2018-09-19T08:10:12.723Z,1008.0
2018-09-19T08:11:14.119Z,1008.0
2018-09-19T08:12:15.481Z,1008.0
2018-09-19T08:13:16.855Z,1008.0
2018-09-19T08:14:18.230Z,1008.0
2018-09-19T08:15:19.593Z,1008.0
2018-09-19T08:16:20.982Z,1008.0
2018-09-19T08:17:22.357Z,1008.0
2018-09-19T08:18:23.736Z,1008.1
2018-09-19T08:19:25.107Z,1008.1
2018-09-19T08:20:26.483Z,1008.1
2018-09-19T08:21:27.851Z,1008.2
2018-09-19T08:22:29.256Z,1008.1
2018-09-19T08:23:30.602Z,1008.2
2018-09-19T08:24:31.977Z,1008.2
2018-09-19T08:25:33.358Z,1008.2
2018-09-19T08:26:34.739Z,1008.2
2018-09-19T08:27:36.154Z,1008.2
2018-09-19T08:28:37.527Z,1008.2
2018-09-19T08:29:38.902Z,1008.3
2018-09-19T08:30:40.283Z,1008.2
2018-09-19T08:31:41.659Z,1008.3
2018-09-19T08:32:43.041Z,1008.3
2018-09-19T08:33:44.422Z,1008.3
2018-09-19T08:34:45.787Z,1008.2
2018-09-19T08:35:47.173Z,1008.3
2018-09-19T08:36:48.547Z,1008.3
2018-09-19T08:37:49.926Z,1008.3
2018-09-19T08:38:52.245Z,1008.3
2018-09-19T08:39:53.633Z,1008.4
2018-09-19T08:40:55.007Z,1008.4
2018-09-19T08:41:56.381Z,1008.4
2018-09-19T08:42:57.758Z,1008.4
2018-09-19T08:43:59.142Z,1008.4
2018-09-19T08:45:00.514Z,1008.4
2018-09-19T08:46:01.887Z,1008.4
2018-09-19T08:47:03.269Z,1008.4
2018-09-19T08:48:04.645Z,1008.4
2018-09-19T08:49:06.031Z,1008.4
2018-09-19T08:50:07.402Z,1008.4
2018-09-19T08:51:08.771Z,1008.4
2018-09-19T08:52:10.155Z,1008.4
2018-09-19T08:53:11.558Z,1008.4
2018-09-19T08:54:12.931Z,1008.4
2018-09-19T08:55:14.291Z,1008.4
2018-09-19T08:56:15.717Z,1008.4
2018-09-19T08:57:17.042Z,1008.4
2018-09-19T08:58:18.426Z,1008.5
2018-09-19T08:59:19.843Z,1008.4
2018-09-19T09:00:21.211Z,1008.4
2018-09-19T09:01:22.579Z,1008.4
2018-09-19T09:02:23.956Z,1008.4
2018-09-19T09:03:25.336Z,1008.4
2018-09-19T09:04:26.715Z,1008.4
2018-09-19T09:05:28.162Z,1008.4
2018-09-19T09:06:29.432Z,1008.4
2018-09-19T09:07:30.812Z,1008.4
2018-09-19T09:08:32.182Z,1008.3
2018-09-19T09:09:33.557Z,1008.4
2018-09-19T09:10:34.933Z,1008.4
2018-09-19T09:11:36.311Z,1008.4
2018-09-19T09:12:37.715Z,1008.4
2018-09-19T09:13:39.070Z,1008.4
2018-09-19T09:14:40.452Z,1008.4
2018-09-19T09:15:41.817Z,1008.4
2018-09-19T09:16:43.198Z,1008.4
2018-09-19T09:17:44.586Z,1008.4
2018-09-19T09:18:45.965Z,1008.3
2018-09-19T09:19:47.392Z,1008.4
2018-09-19T09:20:48.752Z,1008.3
2018-09-19T09:21:50.125Z,1008.4
2018-09-19T09:22:51.501Z,1008.3
2018-09-19T09:23:52.877Z,1008.3
2018-09-19T09:24:54.269Z,1008.4
2018-09-19T09:25:55.650Z,1008.4
2018-09-19T09:26:57.055Z,1008.3
2018-09-19T09:27:58.402Z,1008.3
2018-09-19T09:28:59.805Z,1008.2
2018-09-19T09:30:01.186Z,1008.3
2018-09-19T09:31:02.574Z,1008.4
2018-09-19T09:32:03.959Z,1008.3
2018-09-19T09:33:05.337Z,1008.2
2018-09-19T09:34:06.778Z,1008.4
2018-09-19T09:35:08.057Z,1008.4
2018-09-19T09:36:09.437Z,1008.4
2018-09-19T09:37:10.817Z,1008.3
2018-09-19T09:38:12.186Z,1008.4
2018-09-19T09:39:13.565Z,1008.3
2018-09-19T09:40:14.986Z,1008.3
2018-09-19T09:41:16.332Z,1008.4
2018-09-19T09:42:17.716Z,1008.4
2018-09-19T09:43:58.565Z,1008.3
2018-09-19T09:44:59.949Z,1008.3
2018-09-19T09:46:01.395Z,1008.3
2018-09-19T09:47:02.663Z,1008.3
2018-09-19T09:48:04.038Z,1008.3
2018-09-19T09:49:05.418Z,1008.2
2018-09-19T09:50:06.793Z,1008.2
2018-09-19T09:51:08.188Z,1008.3
2018-09-19T09:52:09.566Z,1008.2
2018-09-19T09:53:10.988Z,1008.2
2018-09-19T09:54:12.322Z,1008.2
2018-09-19T09:55:13.736Z,1008.2
2018-09-19T09:56:15.136Z,1008.0
2018-09-19T09:57:16.513Z,1008.1
2018-09-19T09:58:17.893Z,1008.1
2018-09-19T09:59:19.278Z,1008.2
2018-09-19T10:00:20.667Z,1008.1
2018-09-19T10:01:22.045Z,1008.1
2018-09-19T10:02:23.419Z,1008.2
2018-09-19T10:03:24.803Z,1008.1
2018-09-19T10:04:26.192Z,1008.2
2018-09-19T10:05:27.567Z,1008.2
2018-09-19T10:06:28.986Z,1008.1
2018-09-19T10:07:30.327Z,1008.1
2018-09-19T10:08:31.706Z,1008.1
2018-09-19T10:09:33.078Z,1008.1
2018-09-19T10:10:34.465Z,1008.1
2018-09-19T10:11:35.853Z,1008.1
2018-09-19T10:12:37.239Z,1008.0
2018-09-19T10:13:38.659Z,1008.1
2018-09-19T10:14:39.972Z,1008.0
2018-09-19T10:15:41.358Z,1008.0
2018-09-19T10:16:42.751Z,1007.9
2018-09-19T10:17:44.171Z,1008.0
2018-09-19T10:18:45.632Z,1007.9
2018-09-19T10:19:47.059Z,1007.9
2018-09-19T10:20:48.439Z,1008.0
2018-09-19T10:21:49.826Z,1008.0
2018-09-19T10:22:51.223Z,1008.0
2018-09-19T10:23:52.610Z,1008.0
2018-09-19T10:24:53.991Z,1007.9
2018-09-19T10:25:55.419Z,1007.9
2018-09-19T10:26:56.788Z,1008.0
2018-09-19T10:27:58.184Z,1007.9
2018-09-19T10:28:59.636Z,1007.9
2018-09-19T10:30:01.016Z,1007.8
2018-09-19T10:31:02.399Z,1007.8
2018-09-19T10:32:03.777Z,1007.9
2018-09-19T10:33:05.158Z,1007.8
2018-09-19T10:34:06.548Z,1007.9
2018-09-19T10:35:07.934Z,1007.9
2018-09-19T10:36:09.309Z,1007.8
2018-09-19T10:37:10.695Z,1007.8
2018-09-19T10:38:12.079Z,1007.8
2018-09-19T10:39:13.465Z,1007.8
2018-09-19T10:40:14.904Z,1007.7
2018-09-19T10:41:16.282Z,1007.8
2018-09-19T10:42:17.672Z,1007.7
2018-09-19T10:43:19.056Z,1007.8
2018-09-19T10:44:20.457Z,1007.8
2018-09-19T10:45:21.832Z,1007.8
2018-09-19T10:46:23.218Z,1007.8
2018-09-19T10:47:24.607Z,1007.8
2018-09-19T10:48:25.992Z,1007.8
2018-09-19T10:49:27.393Z,1007.8
2018-09-19T10:50:28.764Z,1007.8
2018-09-19T10:51:30.148Z,1007.7
2018-09-19T10:52:31.527Z,1007.7
2018-09-19T10:53:32.908Z,1007.7
2018-09-19T10:54:34.298Z,1007.7
2018-09-19T10:55:35.679Z,1007.7
2018-09-19T10:56:37.064Z,1007.7
2018-09-19T10:57:38.449Z,1007.7
2018-09-19T10:58:39.817Z,1007.7
2018-09-19T10:59:41.207Z,1007.7
2018-09-19T11:00:42.579Z,1007.7
2018-09-19T11:01:43.968Z,1007.7
2018-09-19T11:02:45.359Z,1007.7
2018-09-19T11:03:46.767Z,1007.7
2018-09-19T11:04:48.118Z,1007.8
2018-09-19T11:05:49.504Z,1007.7
2018-09-19T11:06:50.908Z,1007.8
2018-09-19T11:07:52.288Z,1007.8
2018-09-19T11:08:53.691Z,1007.7
2018-09-19T11:09:55.079Z,1007.7
2018-09-19T11:10:56.446Z,1007.7
2018-09-19T11:11:57.826Z,1007.8
2018-09-19T11:12:59.216Z,1007.7
2018-09-19T11:14:00.603Z,1007.7
2018-09-19T11:15:01.973Z,1007.7
2018-09-19T11:16:03.365Z,1007.7
2018-09-19T11:17:04.820Z,1007.8
2018-09-19T11:18:06.123Z,1007.7
2018-09-19T11:19:07.501Z,1007.7
2018-09-19T11:20:08.893Z,1007.7
2018-09-19T11:21:10.277Z,1007.7
2018-09-19T11:22:11.669Z,1007.7
2018-09-19T11:23:13.062Z,1007.6
2018-09-19T11:24:14.438Z,1007.6
2018-09-19T11:25:15.826Z,1007.7
2018-09-19T11:26:17.246Z,1007.6
2018-09-19T11:27:18.601Z,1007.7
2018-09-19T11:28:19.997Z,1007.5
2018-09-19T11:29:21.389Z,1007.5
2018-09-19T11:30:22.768Z,1007.7
2018-09-19T11:31:24.153Z,1007.6
2018-09-19T11:32:25.537Z,1007.6
2018-09-19T11:33:26.920Z,1007.7
2018-09-19T11:34:28.298Z,1007.6
2018-09-19T11:35:29.703Z,1007.7
2018-09-19T11:36:31.078Z,1007.6
2018-09-19T11:37:32.461Z,1007.6
2018-09-19T11:38:33.852Z,1007.7
2018-09-19T11:39:35.234Z,1007.7
2018-09-19T11:40:36.630Z,1007.8
2018-09-19T11:41:38.008Z,1007.7
2018-09-19T11:42:39.399Z,1007.9
2018-09-19T11:43:40.788Z,1007.6
2018-09-19T11:44:42.180Z,1007.7
2018-09-19T11:45:43.567Z,1007.5
2018-09-19T11:46:44.959Z,1007.9
2018-09-19T11:47:46.384Z,1007.7
2018-09-19T11:48:47.788Z,1007.7
2018-09-19T11:49:49.329Z,1007.7
2018-09-19T11:50:50.724Z,1007.8
2018-09-19T11:51:52.128Z,1007.7
2018-09-19T11:52:53.514Z,1007.6
2018-09-19T11:53:54.889Z,1007.5
2018-09-19T11:54:56.267Z,1007.6
2018-09-19T11:55:57.657Z,1007.4
2018-09-19T11:56:59.040Z,1007.6
2018-09-19T11:58:00.431Z,1007.4
2018-09-19T11:59:01.813Z,1007.4
2018-09-19T12:00:03.195Z,1007.5
2018-09-19T12:01:04.576Z,1007.4
2018-09-19T12:02:06.002Z,1007.3
2018-09-19T12:03:07.337Z,1007.3
2018-09-19T12:04:08.723Z,1007.3
2018-09-19T12:05:10.109Z,1007.4
2018-09-19T12:06:11.489Z,1007.3
2018-09-19T12:07:12.914Z,1007.3
2018-09-19T12:08:14.255Z,1007.2
2018-09-19T12:09:15.632Z,1007.3
2018-09-19T12:10:17.023Z,1007.1
2018-09-19T12:11:18.429Z,1007.3
2018-09-19T12:12:19.804Z,1007.3
2018-09-19T12:13:21.184Z,1007.2
2018-09-19T12:14:22.569Z,1007.2
2018-09-19T12:15:23.943Z,1007.1
2018-09-19T12:16:25.323Z,1007.2
2018-09-19T12:17:26.714Z,1007.1
2018-09-19T12:18:28.092Z,1007.2
2018-09-19T12:19:29.507Z,1007.1
2018-09-19T12:20:30.871Z,1007.2
2018-09-19T12:21:32.253Z,1007.2
2018-09-19T12:22:33.642Z,1007.2
2018-09-19T12:23:35.030Z,1007.2
2018-09-19T12:24:36.413Z,1007.2
2018-09-19T12:25:37.792Z,1007.1
2018-09-19T12:26:39.251Z,1007.2
2018-09-19T12:27:40.524Z,1007.1
2018-09-19T12:28:41.909Z,1007.1
2018-09-19T12:29:43.290Z,1007.0
2018-09-19T12:30:44.703Z,1006.9
2018-09-19T12:31:46.119Z,1006.9
2018-09-19T12:32:47.498Z,1006.9
2018-09-19T12:33:48.875Z,1007.0
2018-09-19T12:34:50.260Z,1007.1
2018-09-19T12:35:51.639Z,1006.9
2018-09-19T12:36:53.021Z,1007.0
2018-09-19T12:37:54.397Z,1007.0
2018-09-19T12:38:55.798Z,1006.9
2018-09-19T12:39:57.179Z,1007.0
2018-09-19T12:40:58.562Z,1007.0
2018-09-19T12:41:59.949Z,1006.9
2018-09-19T12:43:01.328Z,1007.0
2018-09-19T12:44:02.704Z,1006.9
2018-09-19T12:45:04.084Z,1006.9
2018-09-19T12:46:05.473Z,1006.9
2018-09-19T12:47:06.853Z,1007.0
2018-09-19T12:48:08.238Z,1006.9